Home > Products > Valid Products > TAF

000
FTUS41 KAKQ 012300
TAFRIC
TAF
KRIC 012339Z 0200/0224 07006KT 4SM -RA BR OVC020
     FM020200 06006KT 3SM -RA BR OVC008
     FM021400 03005KT 5SM -RA BR SCT007 OVC015=



000
FTUS41 KAKQ 012300
TAFPHF
TAF
KPHF 012339Z 0200/0224 07008KT 5SM -RA BR BKN020 OVC100
     FM020600 09005KT 5SM -RA BR OVC012
     FM021400 22010G15KT 5SM -RA SCT012 OVC100=



000
FTUS41 KAKQ 012300
TAFECG
TAF
KECG 012339Z 0200/0224 07009KT 6SM -SHRA BKN010 OVC070
     FM020300 10007KT 4SM -SHRA BR OVC012
     FM021300 17012KT 5SM SHRA BR OVC025=



000
FTUS41 KAKQ 012300
TAFORF
TAF
KORF 012339Z 0200/0224 07009G16KT P6SM VCSH BKN025 OVC100
     FM020200 09010KT 5SM -SHRA BR OVC025
     FM020500 15007KT 5SM -SHRA BR OVC010
     FM021400 22012G18KT 5SM -SHRA SCT015 OVC100=



000
FTUS41 KAKQ 012300
TAFSBY
TAF
KSBY 012339Z 0200/0224 10005KT 5SM -RA BR SCT040 OVC100
     FM020500 03004KT 4SM -RA BR OVC009
     FM021300 10006KT 5SM -RA BR OVC020=



000
FTUS41 KAKQ 012100 AAA
TAFECG
TAF AMD
KECG 012123Z 0121/0218 07009KT 6SM -SHRA BKN020 OVC070
      TEMPO 0121/0123 BKN010
     FM020300 10007KT 4SM -SHRA BR OVC015
     FM021300 17008KT 5SM SHRA BR OVC025=



000
FTUS41 KAKQ 011900 AAA
TAFORF
TAF AMD
KORF 011956Z 0120/0218 07009KT P6SM VCSH SCT035 OVC100
      TEMPO 0120/0122 07012G17KT 4SM SHRA BR OVC030
     FM020600 09007KT 5SM -SHRA BR OVC025=



000
FTUS41 KAKQ 011700
TAFSBY
TAF
KSBY 011740Z 0118/0218 09006KT P6SM SCT040 OVC100
     FM012300 10005KT 5SM -SHRA BR OVC030
     FM020600 03004KT 4SM -SHRA BR OVC009
     FM021200 10006KT 5SM -SHRA BR OVC020=



000
FTUS41 KAKQ 011700
TAFRIC
TAF
KRIC 011740Z 0118/0218 08006KT P6SM VCSH SCT020 OVC080
     FM012100 07006KT 5SM SHRA BR OVC025
     FM020200 06006KT 3SM SHRA BR OVC008
     FM021300 03005KT 5SM -SHRA BR SCT007 OVC015=



000
FTUS41 KAKQ 011700
TAFECG
TAF
KECG 011740Z 0118/0218 07009KT 6SM -SHRA SCT030 OVC070
      TEMPO 0119/0121 2SM +SHRA BR OVC030
     FM020300 10007KT 4SM -SHRA BR OVC015
     FM021300 17008KT 5SM SHRA BR OVC025=



000
FTUS41 KAKQ 011700
TAFORF
TAF
KORF 011740Z 0118/0218 07009KT P6SM VCSH SCT035 OVC100
      TEMPO 0120/0122 4SM SHRA BR OVC030
     FM020600 09007KT 5SM -SHRA BR OVC025=



000
FTUS41 KAKQ 011700
TAFPHF
TAF
KPHF 011740Z 0118/0218 07008KT P6SM VCSH SCT035 OVC100
      TEMPO 0120/0122 5SM SHRA BR OVC035
     FM020600 09005KT 5SM -SHRA BR OVC020=



000
FTUS41 KAKQ 011100
TAFECG
TAF
KECG 011120Z 0112/0212 07005KT P6SM VCSH SCT040 BKN120
     FM011500 09009KT P6SM BKN040
     FM020000 09006KT P6SM OVC025
     FM020600 12006KT P6SM OVC015=



000
FTUS41 KAKQ 011100
TAFSBY
TAF
KSBY 011120Z 0112/0212 15005KT P6SM BKN120 OVC250
     FM011500 09006KT P6SM SCT040 OVC100
     FM020000 10005KT P6SM BKN040
     FM020600 03004KT 4SM BR OVC015=



000
FTUS41 KAKQ 011100
TAFPHF
TAF
KPHF 011120Z 0112/0212 16004KT P6SM VCSH SCT040 BKN120
     FM011500 07006KT P6SM SCT040 OVC100
     FM011900 09009KT P6SM BKN050
     FM020000 06006KT P6SM OVC035
     FM020600 07004KT 5SM BR OVC015=



000
FTUS41 KAKQ 011100
TAFORF
TAF
KORF 011120Z 0112/0212 12005KT P6SM VCSH SCT040 BKN120
     FM011500 08008KT P6SM SCT040 OVC100
     FM011800 10010KT P6SM BKN050
     FM020000 09010KT P6SM OVC035
     FM020600 15004KT 5SM BR OVC025=



000
FTUS41 KAKQ 011100
TAFRIC
TAF
KRIC 011120Z 0112/0212 15005KT P6SM -RA SCT030 BKN060 OVC120
      TEMPO 0112/0116 4SM -RA BR BKN030
     FM011600 10006KT P6SM VCSH BKN040 OVC080
     FM012200 07005KT P6SM OVC030
     FM020600 04004KT 5SM BR OVC015=



000
FTUS41 KAKQ 010800 AAA
TAFRIC
TAF AMD
KRIC 010845Z 0109/0206 16005KT P6SM -RA SCT040 BKN120
      TEMPO 0109/0112 5SM -RA BR BKN040
     FM011200 12006KT P6SM BKN040
     FM012000 08005KT P6SM OVC030=



000
FTUS41 KAKQ 010500
TAFPHF
TAF
KPHF 010523Z 0106/0206 16005KT P6SM BKN120 OVC250
     FM011200 07006KT P6SM OVC100
     FM011900 10011KT P6SM BKN050
     FM020000 07006KT P6SM OVC035=



000
FTUS41 KAKQ 010500
TAFSBY
TAF
KSBY 010523Z 0106/0206 16004KT P6SM BKN120 OVC250
     FM011400 14007KT P6SM SCT040 OVC100
     FM020000 10005KT P6SM BKN040=



000
FTUS41 KAKQ 010500
TAFORF
TAF
KORF 010523Z 0106/0206 16005KT P6SM BKN120 OVC250
     FM011200 11008KT P6SM SCT040 OVC100
     FM011800 08012KT P6SM BKN050
     FM020000 09010KT P6SM OVC035=



000
FTUS41 KAKQ 010500
TAFECG
TAF
KECG 010523Z 0106/0206 13005KT P6SM BKN120 OVC250
     FM011200 07006KT P6SM SCT025 BKN050
     FM011800 08012KT P6SM BKN050
     FM020000 09006KT P6SM OVC035=



000
FTUS41 KAKQ 010500
TAFRIC
TAF
KRIC 010523Z 0106/0206 18004KT P6SM SCT040 BKN120
      TEMPO 0106/0110 5SM -SHRA BR BKN040
     FM011200 12006KT P6SM BKN040
     FM012000 08005KT P6SM OVC030=



000
FTUS41 KAKQ 312300
TAFORF
TAF
KORF 312338Z 0100/0124 17006KT P6SM BKN150
     FM011200 09010KT P6SM OVC100
     FM011800 09012G17KT P6SM OVC080=



000
FTUS41 KAKQ 312300
TAFECG
TAF
KECG 312338Z 0100/0124 10005KT P6SM BKN250
     FM011000 07005KT P6SM SCT025 BKN050
     FM011600 08012G17KT P6SM FEW030 OVC100=



000
FTUS41 KAKQ 312300
TAFRIC
TAF
KRIC 312338Z 0100/0124 20006KT P6SM SCT050 BKN250
     FM010600 18005KT P6SM VCSH BKN035 OVC150
     FM011400 11007KT P6SM OVC050=



000
FTUS41 KAKQ 312300
TAFSBY
TAF
KSBY 312338Z 0100/0124 18005KT P6SM BKN150
     FM011400 16008KT P6SM OVC100=



000
FTUS41 KAKQ 312300
TAFPHF
TAF
KPHF 312338Z 0100/0124 17005KT P6SM BKN050 OVC150
     FM011200 07006KT P6SM OVC100
     FM011900 09010G15KT P6SM OVC090=



000
FTUS41 KAKQ 311800 AAA
TAFRIC
TAF AMD
KRIC 311831Z 3119/0118 20009KT P6SM SCT050 BKN250
     FM010400 18005KT P6SM VCSH BKN035 OVC150=



000
FTUS41 KAKQ 311700
TAFORF
TAF
KORF 311720Z 3118/0118 16007KT P6SM SCT040 BKN250
     FM010000 18005KT P6SM BKN150=



000
FTUS41 KAKQ 311700
TAFPHF
TAF
KPHF 311720Z 3118/0118 22007KT P6SM SCT050 BKN250
     FM010000 17005KT P6SM BKN050 OVC150=



000
FTUS41 KAKQ 311700
TAFECG
TAF
KECG 311720Z 3118/0118 11007KT P6SM SCT050 BKN250
     FM010000 10005KT P6SM BKN250
     FM011000 07003KT P6SM SCT025 BKN050=



000
FTUS41 KAKQ 311700
TAFRIC
TAF
KRIC 311720Z 3118/0118 22009KT P6SM SCT050 BKN250
     FM010400 18005KT P6SM VCSH BKN035 OVC150=



000
FTUS41 KAKQ 311700
TAFSBY
TAF
KSBY 311720Z 3118/0118 24009G15KT P6SM SCT050 BKN250
     FM010000 18005KT P6SM BKN150
     FM011200 16005KT P6SM OVC100=



000
FTUS41 KAKQ 311600 AAA
TAFSBY
TAF AMD
KSBY 311601Z 3116/0112 24009G15KT P6SM SCT050 BKN250
     FM010000 18005KT P6SM BKN200=



000
FTUS41 KAKQ 311100
TAFPHF
TAF
KPHF 311120Z 3112/0112 21005KT P6SM BKN250
     FM311500 22007KT P6SM FEW050 BKN250
     FM311800 14007KT P6SM SCT050 BKN250
     FM010000 17005KT P6SM BKN250=



000
FTUS41 KAKQ 311100
TAFORF
TAF
KORF 311120Z 3112/0112 21006KT P6SM BKN250
     FM311500 22007KT P6SM FEW050 BKN250
     FM311800 13008KT P6SM SCT050 BKN250
     FM010000 16006KT P6SM BKN250=



000
FTUS41 KAKQ 311100
TAFRIC
TAF
KRIC 311120Z 3112/0112 21005KT P6SM BKN250
     FM311500 22008KT P6SM SCT050 BKN250
     FM010000 18004KT P6SM BKN150=



000
FTUS41 KAKQ 311100
TAFECG
TAF
KECG 311120Z 3112/0112 VRB03KT P6SM BKN250
     FM311500 12008KT P6SM SCT050 BKN250
     FM010000 10005KT P6SM BKN250=



000
FTUS41 KAKQ 311100
TAFSBY
TAF
KSBY 311120Z 3112/0112 21005KT P6SM SCT250
     FM311500 23007KT P6SM SCT050 BKN250
     FM010000 16004KT P6SM BKN200=



000
FTUS41 KAKQ 310500
TAFECG
TAF
KECG 310520Z 3106/0106 16004KT P6SM BKN250
     FM311400 11008KT P6SM SCT050 BKN250
     FM010000 14005KT P6SM BKN250=



000
FTUS41 KAKQ 310500
TAFSBY
TAF
KSBY 310520Z 3106/0106 VRB03KT P6SM SCT250
     FM311400 23007KT P6SM SCT050 BKN250
     FM010000 18005KT P6SM BKN250=



000
FTUS41 KAKQ 310500
TAFORF
TAF
KORF 310520Z 3106/0106 19006KT P6SM SCT250
     FM311400 22007KT P6SM FEW050 BKN250
     FM311800 13008KT P6SM SCT050 BKN250
     FM010000 16007KT P6SM BKN250=



000
FTUS41 KAKQ 310500
TAFRIC
TAF
KRIC 310520Z 3106/0106 20004KT P6SM SCT250
     FM311400 22008KT P6SM SCT050 BKN250
     FM010000 18006KT P6SM BKN250=



000
FTUS41 KAKQ 310500
TAFPHF
TAF
KPHF 310520Z 3106/0106 20004KT P6SM SCT250
     FM311400 22007KT P6SM FEW050 BKN250
     FM311800 15007KT P6SM SCT050 BKN250
     FM010000 18006KT P6SM BKN250=



000
FTUS41 KAKQ 302300
TAFORF
TAF
KORF 302329Z 3100/3124 14004KT P6SM SCT100
     FM311500 21008KT P6SM BKN100=



000
FTUS41 KAKQ 302300
TAFSBY
TAF
KSBY 302329Z 3100/3124 22004KT P6SM SKC
     FM311400 22007KT P6SM SCT060=



000
FTUS41 KAKQ 302300
TAFRIC
TAF
KRIC 302329Z 3100/3124 21005KT P6SM SCT100
     FM311400 20008KT P6SM SCT060 SCT200=



000
FTUS41 KAKQ 302300
TAFPHF
TAF
KPHF 302329Z 3100/3124 13004KT P6SM SCT100
     FM311500 22007KT P6SM BKN100=



000
FTUS41 KAKQ 302300
TAFECG
TAF
KECG 302329Z 3100/3124 10005KT P6SM SCT100
     FM311400 16008KT P6SM BKN100=



000
FTUS41 KAKQ 301700
TAFECG
TAF
KECG 301720Z 3018/3118 02005KT P6SM BKN100
     FM302100 10005KT P6SM SCT100
     FM310100 VRB04KT P6SM SCT100
     FM311300 15006KT P6SM BKN100=



000
FTUS41 KAKQ 301700
TAFPHF
TAF
KPHF 301720Z 3018/3118 01005KT P6SM BKN100
     FM302300 VRB04KT P6SM SCT100
     FM311000 22006KT P6SM BKN100=



000
FTUS41 KAKQ 301700
TAFSBY
TAF
KSBY 301720Z 3018/3118 31006KT P6SM SCT060
     FM302300 VRB03KT P6SM SKC
     FM311400 22007KT P6SM SCT060=



000
FTUS41 KAKQ 301700
TAFRIC
TAF
KRIC 301720Z 3018/3118 VRB04KT P6SM SCT060
     FM310000 17005KT P6SM SCT060
     FM311300 20006KT P6SM BKN060=



000
FTUS41 KAKQ 301700
TAFORF
TAF
KORF 301720Z 3018/3118 02006KT P6SM BKN100
     FM302300 VRB04KT P6SM SCT100
     FM311000 21005KT P6SM BKN100=



000
FTUS41 KAKQ 301100
TAFPHF
TAF
KPHF 301120Z 3012/3112 36006KT P6SM SCT050
     FM301400 01007KT P6SM SCT060
     FM302000 VRB05KT P6SM FEW060=



000
FTUS41 KAKQ 301100
TAFECG
TAF
KECG 301120Z 3012/3112 35006KT P6SM SCT060
     FM301400 04007KT P6SM FEW060
     FM301900 VRB06KT P6SM FEW060=



000
FTUS41 KAKQ 301100
TAFORF
TAF
KORF 301120Z 3012/3112 01006KT P6SM BKN060
     FM301400 03007KT P6SM SCT060
     FM302000 VRB05KT P6SM FEW060=



000
FTUS41 KAKQ 301100
TAFRIC
TAF
KRIC 301120Z 3012/3112 36005KT P6SM SCT060
     FM301500 VRB05KT P6SM SCT060
     FM310000 17005KT P6SM SKC=



000
FTUS41 KAKQ 301100
TAFSBY
TAF
KSBY 301120Z 3012/3112 32007KT P6SM SKC
     FM302300 VRB03KT P6SM SKC
      AMD NOT SKED=



000
FTUS41 KAKQ 300500
TAFRIC
TAF
KRIC 300539Z 3006/3106 00000KT P6SM SCT060
     FM301400 VRB05KT P6SM FEW060
     FM302300 17005KT P6SM SCT060=



000
FTUS41 KAKQ 300500
TAFECG
TAF
KECG 300539Z 3006/3106 05005KT P6SM SKC
     FM301400 04007KT P6SM FEW060
     FM302300 12006KT P6SM SKC=



000
FTUS41 KAKQ 300500
TAFPHF
TAF
KPHF 300539Z 3006/3106 01004KT P6SM SCT080
     FM301400 02007KT P6SM SKC
     FM302300 14005KT P6SM FEW060=



000
FTUS41 KAKQ 300500
TAFORF
TAF
KORF 300539Z 3006/3106 07004KT P6SM SCT080
     FM301400 04007KT P6SM SKC
     FM302300 15005KT P6SM FEW060=



000
FTUS41 KAKQ 300500
TAFSBY
TAF
KSBY 300539Z 3006/3106 00000KT P6SM SKC
     FM301300 31006KT P6SM SKC
     FM302300 VRB03KT P6SM SKC
      AMD NOT SKED=



    US Dept of Commerce
    National Oceanic and Atmospheric Administration
    National Weather Service
    1325 East West Highway
    Silver Spring, MD 20910
    Page Author: NWS Internet Services Team
Disclaimer
Information Quality
Credits
Glossary
Privacy Policy
Freedom of Information Act (FOIA)
About Us
Career Opportunities